In Rescue
 
Open Full Screen Window  High Contrast Mode
Wind Gusting 18 knots
12
April 20, 2024 7:56 AM CDT
Weather Information
Wind Direction
  310 °
Wind Speed
  12 kt (14 mph)
Wind Gust
  18 kt (21 mph)
Altimeter
30.27 in
Visibility
10 SM
Temperature
-01° C
30° F
Dewpoint
-06° C
21° F
Humidity
69%
Sky Condition
Overcast @ 2,900 ft
MVFR

METAR KAEL 201256Z AUTO 31012G18KT 10SM OVC029 M01/M06 A3027 RMK AO2

FAA Disclaimer: The data displayed is for advisory purposes only and is not to be used for flight planning or operations.